createdAt,value
2017-11-20T00:02:21.169Z,6.70
2017-11-20T00:04:48.962Z,6.60
2017-11-20T00:07:16.460Z,6.60
2017-11-20T00:09:43.978Z,6.60
2017-11-20T00:12:11.519Z,6.60
2017-11-20T00:14:39.032Z,6.60
2017-11-20T00:17:07.606Z,6.50
2017-11-20T00:19:35.108Z,6.50
2017-11-20T00:22:02.624Z,6.50
2017-11-20T00:24:30.948Z,6.60
2017-11-20T00:26:58.468Z,6.50
2017-11-20T00:29:26.023Z,6.60
2017-11-20T00:31:54.297Z,6.50
2017-11-20T00:34:22.230Z,6.50
2017-11-20T00:36:49.743Z,6.50
2017-11-20T00:39:18.036Z,6.50
2017-11-20T00:41:45.566Z,6.50
2017-11-20T00:44:13.086Z,6.50
2017-11-20T00:46:40.626Z,6.50
2017-11-20T00:49:08.159Z,6.50
2017-11-20T00:51:36.763Z,6.50
2017-11-20T00:54:04.281Z,6.40
2017-11-20T00:56:31.783Z,6.40
2017-11-20T00:59:00.149Z,6.30
2017-11-20T01:01:27.641Z,6.30
2017-11-20T01:03:55.613Z,6.30
2017-11-20T01:06:23.949Z,6.20
2017-11-20T01:08:51.753Z,6.20
2017-11-20T01:11:19.294Z,6.20
2017-11-20T01:13:46.805Z,6.20
2017-11-20T01:16:14.327Z,6.10
2017-11-20T01:18:41.874Z,6.10
2017-11-20T01:21:09.397Z,6.00
2017-11-20T01:23:37.541Z,6.00
2017-11-20T01:26:05.394Z,6.00
2017-11-20T01:28:32.908Z,6.00
2017-11-20T01:31:01.215Z,5.90
2017-11-20T01:33:28.759Z,5.90
2017-11-20T01:35:57.034Z,5.90
2017-11-20T01:38:25.330Z,5.90
2017-11-20T01:40:52.842Z,5.90
2017-11-20T01:43:20.366Z,5.80
2017-11-20T01:45:47.893Z,5.90
2017-11-20T01:48:16.548Z,5.80
2017-11-20T01:50:44.053Z,5.80
2017-11-20T01:53:11.558Z,5.80
2017-11-20T01:55:39.110Z,5.80
2017-11-20T01:58:06.628Z,5.80
2017-11-20T02:00:34.942Z,5.80
2017-11-20T02:03:02.519Z,5.80
2017-11-20T02:05:30.446Z,5.80
2017-11-20T02:07:57.968Z,5.80
2017-11-20T02:10:26.242Z,5.80
2017-11-20T02:12:54.554Z,5.90
2017-11-20T02:15:22.110Z,5.80
2017-11-20T02:17:50.582Z,5.90
2017-11-20T02:20:18.093Z,5.90
2017-11-20T02:22:45.907Z,5.90
2017-11-20T02:25:14.190Z,5.90
2017-11-20T02:27:42.561Z,6.00
2017-11-20T02:30:10.109Z,6.00
2017-11-20T02:32:37.601Z,6.10
2017-11-20T02:35:05.114Z,6.20
2017-11-20T02:37:32.611Z,6.20
2017-11-20T02:40:00.141Z,6.30
2017-11-20T02:42:27.645Z,6.40
2017-11-20T02:44:55.168Z,6.40
2017-11-20T02:47:23.478Z,6.50
2017-11-20T02:49:50.997Z,6.10
2017-11-20T02:52:18.822Z,6.60
2017-11-20T02:54:46.340Z,6.60
2017-11-20T02:57:14.601Z,6.50
2017-11-20T02:59:42.141Z,6.50
2017-11-20T03:02:09.665Z,6.50
2017-11-20T03:04:37.536Z,6.50
2017-11-20T03:07:05.031Z,6.50
2017-11-20T03:09:32.813Z,6.50
2017-11-20T03:12:00.385Z,6.60
2017-11-20T03:14:28.649Z,6.60
2017-11-20T03:16:56.194Z,6.60
2017-11-20T03:19:23.747Z,6.60
2017-11-20T03:21:51.592Z,6.60
2017-11-20T03:24:19.867Z,6.70
2017-11-20T03:26:47.375Z,6.70
2017-11-20T03:29:14.909Z,6.70
2017-11-20T03:31:42.434Z,6.70
2017-11-20T03:34:09.969Z,6.80
2017-11-20T03:36:38.254Z,6.80
2017-11-20T03:39:06.862Z,6.70
2017-11-20T03:41:34.375Z,6.70
2017-11-20T03:44:01.880Z,6.70
2017-11-20T03:46:29.424Z,6.70
2017-11-20T03:48:56.931Z,6.80
2017-11-20T03:51:25.372Z,6.80
2017-11-20T03:53:52.888Z,6.80
2017-11-20T03:56:20.668Z,6.80
2017-11-20T03:58:48.185Z,6.80
2017-11-20T04:01:15.680Z,6.80
2017-11-20T04:03:44.026Z,6.80
2017-11-20T04:06:11.541Z,6.80
2017-11-20T04:08:39.078Z,6.80
2017-11-20T04:11:06.613Z,6.80
2017-11-20T04:13:34.458Z,6.80
2017-11-20T04:16:01.958Z,6.80
2017-11-20T04:18:29.486Z,6.80
2017-11-20T04:20:57.009Z,6.80
2017-11-20T04:23:25.285Z,6.70
2017-11-20T04:25:53.578Z,6.70
2017-11-20T04:28:21.090Z,6.70
2017-11-20T04:30:49.033Z,6.70
2017-11-20T04:33:16.550Z,6.70
2017-11-20T04:35:44.863Z,6.70
2017-11-20T04:38:12.418Z,6.70
2017-11-20T04:40:39.916Z,6.80
2017-11-20T04:43:07.461Z,6.80
2017-11-20T04:45:35.593Z,6.80
2017-11-20T04:48:03.406Z,6.70
2017-11-20T04:50:30.914Z,6.60
2017-11-20T04:53:03.224Z,6.50
2017-11-20T04:55:30.725Z,6.50
2017-11-20T04:57:59.004Z,6.50
2017-11-20T05:00:26.551Z,6.50
2017-11-20T05:02:54.052Z,6.50
2017-11-20T05:05:21.575Z,6.50
2017-11-20T05:07:49.082Z,6.50
2017-11-20T05:10:16.934Z,6.50
2017-11-20T05:12:44.466Z,6.50
2017-11-20T05:15:11.986Z,6.60
2017-11-20T05:17:39.556Z,6.60
2017-11-20T05:20:07.080Z,6.60
2017-11-20T05:22:34.624Z,6.60
2017-11-20T05:25:02.913Z,6.70
2017-11-20T05:27:30.898Z,6.70
2017-11-20T05:29:58.420Z,6.70
2017-11-20T05:32:25.914Z,6.70
2017-11-20T05:34:53.452Z,6.70
2017-11-20T05:37:21.721Z,6.70
2017-11-20T05:39:50.035Z,6.70
2017-11-20T05:42:17.563Z,6.70
2017-11-20T05:44:45.394Z,6.70
2017-11-20T05:47:12.897Z,6.70
2017-11-20T05:49:41.236Z,6.70
2017-11-20T05:52:08.790Z,6.70
2017-11-20T05:54:36.288Z,6.70
2017-11-20T05:57:04.633Z,6.70
2017-11-20T05:59:32.150Z,6.60
2017-11-20T06:02:00.026Z,6.70
2017-11-20T06:04:27.546Z,6.70
2017-11-20T06:06:55.879Z,6.70
2017-11-20T06:09:23.495Z,6.70
2017-11-20T06:11:51.006Z,6.70
2017-11-20T06:14:18.528Z,6.70
2017-11-20T06:16:46.024Z,6.60
2017-11-20T06:19:13.838Z,6.60
2017-11-20T06:21:41.351Z,6.50
2017-11-20T06:24:08.853Z,6.50
2017-11-20T06:26:36.398Z,6.40
2017-11-20T06:29:03.904Z,6.40
2017-11-20T06:31:31.431Z,6.30
2017-11-20T06:33:58.966Z,6.30
2017-11-20T06:36:26.772Z,6.30
2017-11-20T06:38:55.037Z,6.30
2017-11-20T06:41:23.322Z,6.20
2017-11-20T06:43:50.856Z,6.20
2017-11-20T06:46:18.379Z,6.20
2017-11-20T06:48:45.910Z,6.20
2017-11-20T06:51:13.432Z,6.20
2017-11-20T06:53:41.262Z,6.20
2017-11-20T06:56:08.797Z,6.20
2017-11-20T06:58:42.931Z,6.20
2017-11-20T07:01:10.441Z,6.30
2017-11-20T07:03:38.571Z,6.30
2017-11-20T07:06:06.882Z,6.20
2017-11-20T07:08:34.638Z,6.20
2017-11-20T07:11:02.890Z,6.20
2017-11-20T07:13:32.609Z,6.20
2017-11-20T07:16:00.564Z,6.20
2017-11-20T07:18:28.077Z,6.10
2017-11-20T07:20:55.610Z,6.10
2017-11-20T07:23:23.130Z,6.10
2017-11-20T07:29:12.578Z,6.10
2017-11-20T07:31:40.121Z,6.10
2017-11-20T07:34:19.393Z,6.10
2017-11-20T07:36:59.140Z,6.10
2017-11-20T07:39:31.541Z,6.10
2017-11-20T07:41:59.418Z,6.20
2017-11-20T07:44:26.927Z,6.20
2017-11-20T07:46:54.433Z,6.20
2017-11-20T07:49:21.985Z,6.30
2017-11-20T07:51:49.547Z,6.30
2017-11-20T07:54:17.901Z,6.40
2017-11-20T07:56:45.424Z,6.40
2017-11-20T07:59:13.229Z,6.40
2017-11-20T08:01:41.514Z,6.50
2017-11-20T08:04:09.774Z,6.60
2017-11-20T08:06:37.330Z,6.60
2017-11-20T08:09:04.907Z,6.70
2017-11-20T08:11:32.447Z,6.70
2017-11-20T08:13:59.951Z,6.70
2017-11-20T08:16:27.831Z,6.70
2017-11-20T08:18:55.364Z,6.70
2017-11-20T08:21:23.633Z,6.80
2017-11-20T08:23:51.239Z,6.80
2017-11-20T08:26:18.757Z,6.80
2017-11-20T08:28:47.077Z,6.90
2017-11-20T08:31:14.622Z,6.90
2017-11-20T08:33:42.403Z,7.00
2017-11-20T08:36:09.979Z,7.00
2017-11-20T08:38:37.497Z,7.10
2017-11-20T08:41:05.037Z,7.10
2017-11-20T08:43:32.546Z,7.10
2017-11-20T08:46:00.086Z,7.20
2017-11-20T08:48:27.628Z,7.20
2017-11-20T08:50:56.170Z,7.30
2017-11-20T08:53:23.676Z,7.30
2017-11-20T08:55:51.959Z,7.30
2017-11-20T08:58:20.389Z,7.30
2017-11-20T09:00:47.893Z,7.40
2017-11-20T09:03:16.214Z,7.40
2017-11-20T09:05:43.735Z,7.40
2017-11-20T09:08:11.629Z,7.40
2017-11-20T09:10:40.082Z,7.50
2017-11-20T09:13:08.398Z,7.50
2017-11-20T09:15:35.991Z,7.50
2017-11-20T09:18:03.518Z,7.50
2017-11-20T09:20:31.062Z,7.60
2017-11-20T09:22:58.561Z,7.60
2017-11-20T09:25:26.388Z,7.60
2017-11-20T09:27:57.218Z,7.70
2017-11-20T09:30:24.780Z,7.80
2017-11-20T09:32:52.463Z,7.80
2017-11-20T09:35:19.975Z,7.90
2017-11-20T09:37:48.278Z,8.00
2017-11-20T09:40:15.814Z,8.00
2017-11-20T09:42:43.683Z,8.10
2017-11-20T09:45:11.210Z,8.00
2017-11-20T09:47:38.722Z,8.10
2017-11-20T09:50:07.048Z,8.10
2017-11-20T09:52:34.597Z,8.10
2017-11-20T09:55:02.156Z,8.10
2017-11-20T09:57:29.688Z,8.10
2017-11-20T09:59:57.492Z,8.00
2017-11-20T10:02:25.009Z,7.80
2017-11-20T10:04:52.519Z,7.70
2017-11-20T10:07:20.054Z,7.70
2017-11-20T10:09:47.627Z,7.70
2017-11-20T10:12:15.168Z,7.60
2017-11-20T10:14:42.699Z,7.60
2017-11-20T10:17:10.680Z,7.70
2017-11-20T10:19:38.346Z,7.70
2017-11-20T10:22:05.896Z,7.80
2017-11-20T10:24:34.238Z,7.90
2017-11-20T10:27:01.760Z,7.90
2017-11-20T10:29:29.343Z,7.90
2017-11-20T10:31:56.855Z,7.90
2017-11-20T10:34:25.571Z,8.10
2017-11-20T10:36:53.101Z,8.00
2017-11-20T10:39:21.365Z,8.10
2017-11-20T10:41:49.166Z,8.10
2017-11-20T10:44:16.686Z,8.10
2017-11-20T10:46:44.233Z,8.10
2017-11-20T10:49:11.751Z,8.10
2017-11-20T10:51:39.733Z,8.10
2017-11-20T10:54:07.274Z,8.10
2017-11-20T10:56:34.835Z,8.10
2017-11-20T10:59:02.369Z,8.00
2017-11-20T11:01:30.659Z,7.90
2017-11-20T11:03:58.473Z,7.90
2017-11-20T11:06:25.990Z,7.80
2017-11-20T11:08:53.527Z,7.70
2017-11-20T11:11:21.748Z,7.60
2017-11-20T11:13:49.274Z,7.60
2017-11-20T11:16:17.564Z,7.60
2017-11-20T11:18:45.109Z,7.60
2017-11-20T11:21:13.439Z,7.60
2017-11-20T11:23:40.956Z,7.60
2017-11-20T11:26:09.230Z,7.60
2017-11-20T11:28:37.541Z,7.60
2017-11-20T11:31:05.045Z,7.50
2017-11-20T11:33:32.702Z,7.50
2017-11-20T11:36:00.219Z,7.50
2017-11-20T11:38:27.790Z,7.50
2017-11-20T11:40:55.289Z,7.50
2017-11-20T11:43:22.797Z,7.40
2017-11-20T11:45:50.332Z,7.50
2017-11-20T11:48:17.859Z,7.40
2017-11-20T11:50:45.797Z,7.50
2017-11-20T11:53:13.309Z,7.50
2017-11-20T11:55:41.855Z,7.50
2017-11-20T11:58:09.389Z,7.40
2017-11-20T12:00:37.168Z,7.40
2017-11-20T12:03:04.740Z,7.40
2017-11-20T12:05:32.246Z,7.30
2017-11-20T12:08:00.578Z,7.20
2017-11-20T12:10:28.130Z,7.20
2017-11-20T12:12:55.663Z,7.10
2017-11-20T12:15:23.285Z,7.10
2017-11-20T12:17:50.814Z,7.00
2017-11-20T12:20:18.738Z,7.00
2017-11-20T12:22:47.072Z,7.00
2017-11-20T12:25:14.588Z,7.00
2017-11-20T12:27:42.208Z,7.00
2017-11-20T12:30:09.744Z,7.00
2017-11-20T12:32:37.349Z,7.10
2017-11-20T12:35:05.639Z,7.00
2017-11-20T12:37:33.959Z,7.10
2017-11-20T12:40:01.477Z,7.10
2017-11-20T12:42:29.755Z,7.10
2017-11-20T12:44:57.285Z,7.10
2017-11-20T12:47:24.801Z,7.10
2017-11-20T12:49:52.338Z,7.10
2017-11-20T12:52:20.652Z,7.10
2017-11-20T12:54:48.199Z,7.10
2017-11-20T12:57:15.753Z,7.10
2017-11-20T12:59:43.303Z,7.10
2017-11-20T13:02:10.913Z,7.20
2017-11-20T13:04:38.440Z,7.10
2017-11-20T13:07:05.996Z,7.20
2017-11-20T13:09:33.530Z,7.20
2017-11-20T13:12:01.850Z,7.20
2017-11-20T13:14:29.358Z,7.20
2017-11-20T13:16:56.926Z,7.30
2017-11-20T13:19:25.217Z,7.30
2017-11-20T13:21:52.784Z,7.30
2017-11-20T13:24:20.308Z,7.30
2017-11-20T13:26:47.830Z,7.30
2017-11-20T13:29:15.376Z,7.30
2017-11-20T13:31:42.927Z,7.40
2017-11-20T13:34:10.492Z,7.50
2017-11-20T13:36:38.074Z,7.50
2017-11-20T13:39:07.261Z,7.50
2017-11-20T13:41:35.866Z,7.50
2017-11-20T13:44:03.386Z,7.50
2017-11-20T13:46:30.942Z,7.50
2017-11-20T13:48:59.257Z,7.50
2017-11-20T13:51:26.791Z,7.50
2017-11-20T13:53:54.329Z,7.50
2017-11-20T13:56:23.042Z,7.50
2017-11-20T13:58:50.584Z,7.50
2017-11-20T14:01:18.904Z,7.60
2017-11-20T14:03:46.467Z,7.50
2017-11-20T14:06:17.857Z,7.50
2017-11-20T14:08:46.181Z,7.60
2017-11-20T14:11:13.728Z,7.60
2017-11-20T14:13:41.320Z,7.60
2017-11-20T14:16:08.832Z,7.60
2017-11-20T14:18:37.107Z,7.60
2017-11-20T14:21:05.486Z,7.60
2017-11-20T14:23:33.755Z,7.60
2017-11-20T14:26:02.158Z,7.60
2017-11-20T14:28:29.785Z,7.60
2017-11-20T14:30:57.352Z,7.60
2017-11-20T14:33:24.929Z,7.60
2017-11-20T14:35:53.274Z,7.60
2017-11-20T14:38:20.801Z,7.60
2017-11-20T14:40:48.307Z,7.60
2017-11-20T14:43:15.852Z,7.60
2017-11-20T14:45:43.406Z,7.60
2017-11-20T15:01:52.928Z,7.50
2017-11-20T15:04:20.463Z,7.50
2017-11-20T15:06:48.020Z,7.50
2017-11-20T15:09:15.592Z,7.50
2017-11-20T15:11:43.176Z,7.50
2017-11-20T15:14:10.974Z,7.50
2017-11-20T15:16:38.497Z,7.40
2017-11-20T15:19:06.053Z,7.40
2017-11-20T15:21:33.559Z,7.40
2017-11-20T15:24:01.651Z,7.40
2017-11-20T15:26:30.031Z,7.30
2017-11-20T15:28:58.427Z,7.30
2017-11-20T15:31:25.988Z,7.30
2017-11-20T15:33:54.451Z,7.30
2017-11-20T15:36:22.799Z,7.20
2017-11-20T15:38:50.345Z,7.20
2017-11-20T15:41:17.912Z,7.20
2017-11-20T15:43:45.409Z,7.20
2017-11-20T15:46:13.752Z,7.20
2017-11-20T15:48:41.290Z,7.20
2017-11-20T15:51:08.805Z,7.20
2017-11-20T15:53:37.116Z,7.10
2017-11-20T15:56:04.631Z,7.20
2017-11-20T15:58:32.179Z,7.10
2017-11-20T16:00:59.767Z,7.10
2017-11-20T16:03:28.395Z,7.10
2017-11-20T16:05:55.929Z,7.10
2017-11-20T16:08:24.207Z,7.10
2017-11-20T16:10:52.650Z,7.10
2017-11-20T16:13:20.164Z,7.20
2017-11-20T16:15:47.734Z,7.10
2017-11-20T16:18:15.252Z,7.10
2017-11-20T16:20:43.558Z,7.20
2017-11-20T16:23:11.132Z,7.20
2017-11-20T16:25:38.667Z,7.20
2017-11-20T16:28:06.236Z,7.20
2017-11-20T16:30:33.813Z,7.20
2017-11-20T16:33:01.352Z,7.20
2017-11-20T16:35:32.504Z,7.20
2017-11-20T16:38:01.048Z,7.20
2017-11-20T16:40:28.614Z,7.20
2017-11-20T16:42:56.144Z,7.20
2017-11-20T16:45:23.720Z,7.10
2017-11-20T16:47:51.240Z,7.20
2017-11-20T16:50:18.795Z,7.20
2017-11-20T16:52:46.570Z,7.20
2017-11-20T16:55:14.157Z,7.20
2017-11-20T16:57:53.558Z,7.20
2017-11-20T17:00:31.917Z,7.10
2017-11-20T17:03:07.402Z,7.10
2017-11-20T17:05:35.900Z,7.00
2017-11-20T17:08:03.448Z,7.00
2017-11-20T17:10:30.962Z,7.00
2017-11-20T17:12:58.506Z,7.00
2017-11-20T17:15:26.017Z,7.00
2017-11-20T17:17:54.348Z,7.00
2017-11-20T17:20:21.867Z,7.00
2017-11-20T17:22:49.483Z,7.10
2017-11-20T17:25:17.033Z,7.10
2017-11-20T17:27:44.545Z,7.10
2017-11-20T17:30:12.090Z,7.10
2017-11-20T17:32:39.678Z,7.10
2017-11-20T17:35:07.241Z,7.10
2017-11-20T17:37:34.758Z,7.10
2017-11-20T17:40:02.314Z,7.10
2017-11-20T17:42:29.823Z,7.10
2017-11-20T17:44:57.354Z,7.00
2017-11-20T17:47:24.938Z,7.00
2017-11-20T17:49:52.444Z,6.90
2017-11-20T17:52:19.996Z,6.90
2017-11-20T17:54:47.513Z,6.80
2017-11-20T17:57:15.274Z,6.80
2017-11-20T17:59:42.856Z,6.80
2017-11-20T18:02:10.387Z,6.70
2017-11-20T18:04:38.693Z,6.70
2017-11-20T18:07:06.211Z,6.70
2017-11-20T18:09:33.766Z,6.70
2017-11-20T18:12:01.344Z,6.60
2017-11-20T18:14:29.608Z,6.60
2017-11-20T18:16:57.930Z,6.60
2017-11-20T18:19:25.447Z,6.60
2017-11-20T18:21:52.998Z,6.60
2017-11-20T18:24:20.591Z,6.60
2017-11-20T18:26:48.179Z,6.70
2017-11-20T18:29:15.729Z,6.60
2017-11-20T18:31:43.400Z,6.70
2017-11-20T18:34:10.962Z,6.80
2017-11-20T18:36:38.467Z,6.80
2017-11-20T18:39:06.017Z,6.80
2017-11-20T18:41:33.558Z,6.70
2017-11-20T18:44:01.211Z,6.80
2017-11-20T18:46:28.925Z,6.70
2017-11-20T18:48:56.434Z,6.70
2017-11-20T18:51:24.052Z,6.70
2017-11-20T18:53:52.372Z,6.80
2017-11-20T18:56:19.951Z,6.70
2017-11-20T18:58:47.492Z,6.80
2017-11-20T19:01:26.976Z,6.90
2017-11-20T19:04:06.386Z,6.90
2017-11-20T19:06:45.644Z,7.00
2017-11-20T19:09:14.856Z,7.00
2017-11-20T19:11:44.129Z,7.10
2017-11-20T19:14:11.690Z,7.00
2017-11-20T19:16:39.199Z,7.10
2017-11-20T19:19:06.764Z,7.10
2017-11-20T19:21:34.361Z,7.10
2017-11-20T19:24:02.004Z,7.10
2017-11-20T19:26:29.537Z,7.10
2017-11-20T19:29:02.119Z,7.10
2017-11-20T19:31:29.758Z,7.00
2017-11-20T19:33:58.088Z,7.00
2017-11-20T19:36:25.683Z,7.00
2017-11-20T19:38:54.121Z,7.00
2017-11-20T19:41:21.726Z,7.00
2017-11-20T19:43:49.277Z,7.00
2017-11-20T19:46:16.922Z,6.90
2017-11-20T19:48:44.525Z,6.90
2017-11-20T19:51:12.624Z,6.90
2017-11-20T19:53:40.295Z,6.90
2017-11-20T19:56:08.418Z,6.90
2017-11-20T19:58:36.804Z,7.00
2017-11-20T20:01:04.331Z,6.90
2017-11-20T20:03:31.955Z,6.90
2017-11-20T20:06:00.290Z,6.90
2017-11-20T20:08:27.840Z,6.90
2017-11-20T20:10:55.448Z,6.90
2017-11-20T20:13:35.027Z,7.00
2017-11-20T20:16:14.744Z,7.00
2017-11-20T20:18:43.195Z,7.00
2017-11-20T20:21:11.670Z,7.00
2017-11-20T20:23:39.403Z,7.00
2017-11-20T20:26:06.970Z,7.00
2017-11-20T20:28:34.612Z,6.90
2017-11-20T20:31:02.241Z,6.90
2017-11-20T20:33:29.797Z,6.90
2017-11-20T20:35:57.356Z,6.90
2017-11-20T20:38:24.895Z,6.90
2017-11-20T20:40:52.530Z,6.80
2017-11-20T20:43:20.119Z,6.90
2017-11-20T20:45:47.714Z,6.90
2017-11-20T20:48:15.296Z,6.90
2017-11-20T20:50:42.897Z,6.90
2017-11-20T20:53:10.517Z,6.90
2017-11-20T20:55:38.132Z,6.90
2017-11-20T20:58:06.615Z,7.00
2017-11-20T21:00:34.389Z,6.90
2017-11-20T21:03:01.992Z,7.00
2017-11-20T21:05:30.568Z,7.00
2017-11-20T21:07:58.324Z,7.00
2017-11-20T21:10:46.758Z,7.00
2017-11-20T21:13:14.343Z,7.00
2017-11-20T21:15:41.956Z,7.10
2017-11-20T21:18:09.510Z,7.10
2017-11-20T21:20:37.095Z,7.10
2017-11-20T21:23:04.642Z,7.10
2017-11-20T21:25:36.063Z,7.10
2017-11-20T21:28:04.005Z,7.10
2017-11-20T21:30:31.572Z,7.10
2017-11-20T21:32:59.179Z,7.10
2017-11-20T21:35:26.740Z,7.20
2017-11-20T21:37:54.705Z,7.20
2017-11-20T21:40:22.231Z,7.20
2017-11-20T21:42:50.621Z,7.20
2017-11-20T21:45:18.215Z,7.20
2017-11-20T21:47:46.773Z,7.30
2017-11-20T21:50:14.363Z,7.30
2017-11-20T21:52:41.907Z,7.30
2017-11-20T21:55:09.481Z,7.30
2017-11-20T21:57:37.070Z,7.30
2017-11-20T22:00:05.512Z,7.30
2017-11-20T22:02:33.126Z,7.20
2017-11-20T22:05:01.444Z,7.30
2017-11-20T22:07:29.004Z,7.30
2017-11-20T22:09:56.633Z,7.30
2017-11-20T22:12:36.678Z,7.30
2017-11-20T22:15:05.060Z,7.20
2017-11-20T22:17:32.638Z,7.30
2017-11-20T22:20:00.204Z,7.20
2017-11-20T22:22:27.789Z,7.20
2017-11-20T22:24:55.290Z,7.20
2017-11-20T22:27:23.663Z,7.20
2017-11-20T22:29:51.190Z,7.10
2017-11-20T22:32:18.762Z,7.10
2017-11-20T22:34:46.379Z,7.20
2017-11-20T22:37:14.002Z,7.10
2017-11-20T22:39:41.606Z,7.20
2017-11-20T22:42:09.178Z,7.10
2017-11-20T22:44:36.703Z,7.10
2017-11-20T22:47:04.261Z,7.10
2017-11-20T22:49:31.774Z,7.10
2017-11-20T22:51:59.354Z,7.10
2017-11-20T22:54:26.874Z,7.10
2017-11-20T22:56:54.414Z,7.10
2017-11-20T22:59:21.937Z,7.10
2017-11-20T23:01:49.493Z,7.00
2017-11-20T23:04:16.997Z,7.10
2017-11-20T23:06:45.298Z,7.10
2017-11-20T23:09:12.844Z,7.10
2017-11-20T23:11:41.132Z,7.10
2017-11-20T23:14:08.662Z,7.00
2017-11-20T23:16:36.305Z,7.10
2017-11-20T23:19:04.090Z,7.00
2017-11-20T23:21:31.608Z,7.00
2017-11-20T23:23:59.129Z,6.90
2017-11-20T23:26:27.502Z,6.90
2017-11-20T23:28:55.082Z,6.90
2017-11-20T23:31:22.666Z,6.90
2017-11-20T23:33:50.205Z,6.90
2017-11-20T23:36:17.763Z,6.90
2017-11-20T23:38:45.327Z,6.90
2017-11-20T23:41:12.862Z,6.80
2017-11-20T23:43:40.438Z,6.90
2017-11-20T23:46:08.002Z,6.80
2017-11-20T23:48:35.524Z,6.90
2017-11-20T23:51:03.074Z,6.80
2017-11-20T23:53:34.424Z,6.80
2017-11-20T23:56:01.967Z,6.80
2017-11-20T23:58:29.487Z,6.80
